Time;durP1;ratioP1;P1;durP2;ratioP2;P2;SDS_P1;SDS_P2;PMS_P1;PMS_P2;Temp;Humidity;BMP_temperature;BMP_pressure;BME280_temperature;BME280_humidity;BME280_pressure;Samples;Min_cycle;Max_cycle;Signal;HPM_P1;HPM_P2
2021/07/28 00:02:01;;;;;;;2.20;1.60;;;;;;;29.09;54.85;100562.53;5049598;28;64520;-35
2021/07/28 00:04:35;;;;;;;3.00;1.70;;;;;;;29.20;54.58;100578.06;5048143;28;69053;-35
2021/07/28 00:07:08;;;;;;;5.80;1.63;;;;;;;29.28;54.39;100579.66;5045390;28;66032;-35
2021/07/28 00:09:38;;;;;;;6.05;1.90;;;;;;;29.29;54.77;100586.72;5034541;28;69287;-36
2021/07/28 00:12:08;;;;;;;5.13;1.65;;;;;;;29.33;55.24;100583.34;5050196;28;66265;-34
2021/07/28 00:14:39;;;;;;;4.80;1.75;;;;;;;29.24;55.65;100562.22;5047458;28;69843;-34
2021/07/28 00:17:12;;;;;;;4.93;1.70;;;;;;;29.43;55.96;100590.19;5049929;28;66167;-35
2021/07/28 00:19:52;;;;;;;3.35;1.90;;;;;;;29.50;56.19;100597.19;5050787;28;69787;-33
2021/07/28 00:25:12;;;;;;;8.98;2.40;;;;;;;29.50;57.11;100583.66;5048917;28;69335;-36
2021/07/28 00:27:43;;;;;;;3.83;2.80;;;;;;;29.66;57.92;100598.56;5053280;28;66239;-36
2021/07/28 00:30:13;;;;;;;6.00;2.80;;;;;;;29.74;60.46;100606.41;5052237;28;69669;-36
2021/07/28 00:32:45;;;;;;;5.45;2.95;;;;;;;29.83;60.63;100606.97;5048752;28;65911;-36
2021/07/28 00:35:17;;;;;;;6.32;3.80;;;;;;;29.84;62.37;100585.13;5049538;28;69984;-35
2021/07/28 00:37:49;;;;;;;5.97;3.58;;;;;;;30.00;61.37;100610.78;5054489;28;66119;-36
2021/07/28 00:40:20;;;;;;;6.18;4.03;;;;;;;30.09;62.69;100603.22;5047648;28;69904;-36
2021/07/28 00:42:50;;;;;;;13.73;4.25;;;;;;;30.19;62.80;100614.34;5050973;28;66108;-35
2021/07/28 00:45:24;;;;;;;12.55;3.92;;;;;;;29.92;61.21;100558.84;5053648;28;70218;-36
2021/07/28 00:47:54;;;;;;;9.82;5.05;;;;;;;30.31;62.70;100610.97;5051744;28;66637;-36
2021/07/28 00:50:25;;;;;;;12.35;5.13;;;;;;;30.41;63.08;100616.69;5050006;28;69742;-37
2021/07/28 00:52:59;;;;;;;5.18;4.30;;;;;;;30.46;62.77;100616.84;5049018;28;66656;-37
2021/07/28 00:55:33;;;;;;;9.20;4.82;;;;;;;30.44;61.61;100597.28;5050470;28;70012;-37
2021/07/28 00:58:03;;;;;;;6.47;4.22;;;;;;;30.55;62.49;100618.22;5048448;28;65396;-36
2021/07/28 01:00:34;;;;;;;6.55;4.75;;;;;;;30.58;62.37;100620.47;5043129;28;69606;-38
2021/07/28 01:03:04;;;;;;;7.68;4.40;;;;;;;30.63;62.22;100630.63;5051305;28;65308;-36
2021/07/28 01:05:35;;;;;;;9.45;4.63;;;;;;;30.57;61.55;100618.81;5053747;28;70267;-37
2021/07/28 01:08:10;;;;;;;11.23;4.68;;;;;;;30.66;62.77;100619.34;5051787;28;66133;-37
2021/07/28 01:10:40;;;;;;;6.87;4.20;;;;;;;30.61;62.56;100606.47;5052627;28;70278;-36
2021/07/28 01:13:11;;;;;;;7.53;4.00;;;;;;;30.69;62.21;100608.06;5052739;28;66166;-36
2021/07/28 01:15:47;;;;;;;7.30;4.40;;;;;;;30.72;62.71;100624.69;5051628;28;71369;-37
2021/07/28 01:18:21;;;;;;;15.35;4.45;;;;;;;30.73;63.00;100625.53;5051628;28;66321;-36
2021/07/28 01:20:52;;;;;;;6.73;4.07;;;;;;;30.75;62.65;100623.41;5049663;28;69995;-36
2021/07/28 01:23:28;;;;;;;9.57;3.67;;;;;;;30.79;62.16;100635.44;5051021;28;65902;-37
2021/07/28 01:26:02;;;;;;;4.88;3.65;;;;;;;30.60;63.11;100604.84;5052465;28;69766;-37
2021/07/28 01:28:37;;;;;;;7.30;3.58;;;;;;;30.79;63.02;100645.47;5052058;28;65509;-37
2021/07/28 01:31:15;;;;;;;7.93;4.05;;;;;;;30.50;63.93;100586.38;5046510;28;69746;-36
2021/07/28 01:33:47;;;;;;;4.65;2.95;;;;;;;30.79;63.35;100637.34;5049186;28;66221;-36
2021/07/28 01:36:21;;;;;;;5.88;3.63;;;;;;;30.81;63.64;100627.94;5051101;28;70077;-38
2021/07/28 01:38:54;;;;;;;4.95;3.00;;;;;;;30.84;63.47;100637.50;5046832;28;66220;-38
2021/07/28 01:41:24;;;;;;;5.32;3.13;;;;;;;30.83;63.66;100641.28;5046343;28;70896;-37
2021/07/28 01:44:00;;;;;;;6.70;2.67;;;;;;;30.73;64.41;100620.94;5051607;28;66385;-35
2021/07/28 01:46:32;;;;;;;4.88;2.97;;;;;;;30.63;64.64;100615.22;5032481;28;68307;-34
2021/07/28 01:49:12;;;;;;;11.75;3.03;;;;;;;30.69;64.81;100635.13;5051058;28;65300;-37
2021/07/28 01:51:44;;;;;;;5.20;2.70;;;;;;;30.69;65.37;100638.66;5045615;28;70221;-37
2021/07/28 01:54:17;;;;;;;3.78;2.72;;;;;;;30.70;64.87;100650.31;5046376;28;66639;-34
2021/07/28 01:56:53;;;;;;;5.05;2.60;;;;;;;30.72;65.50;100643.63;5037814;28;69317;-35
2021/07/28 01:59:27;;;;;;;8.60;2.72;;;;;;;30.71;65.51;100633.88;5052745;28;66167;-35
2021/07/28 02:01:59;;;;;;;5.03;2.97;;;;;;;30.73;65.49;100641.78;5045571;28;69305;-40
2021/07/28 02:04:33;;;;;;;9.60;3.05;;;;;;;30.77;65.76;100642.16;5050117;28;65162;-35
2021/07/28 02:07:04;;;;;;;4.60;2.58;;;;;;;30.76;65.26;100640.47;5048070;28;71067;-36
2021/07/28 02:09:39;;;;;;;5.88;2.60;;;;;;;30.77;66.12;100637.56;5044146;28;65571;-37
2021/07/28 02:12:11;;;;;;;;;;;;;;;30.54;66.15;100640.94;5053151;28;69447;-34
2021/07/28 02:14:42;;;;;;;6.47;2.50;;;;;;;30.77;65.09;100637.56;5033190;28;66782;-39
2021/07/28 02:17:16;;;;;;;4.75;2.75;;;;;;;30.79;65.74;100634.63;5033536;28;69907;-35
2021/07/28 02:19:54;;;;;;;4.22;2.65;;;;;;;30.76;65.82;100629.63;5049963;28;66848;-34
2021/07/28 02:22:35;;;;;;;3.08;2.53;;;;;;;30.86;65.56;100640.81;5049135;28;70460;-35
2021/07/28 02:25:07;;;;;;;4.90;2.50;;;;;;;30.82;65.48;100634.22;5046938;28;66299;-35
2021/07/28 02:28:00;;;;;;;5.22;3.00;;;;;;;30.87;65.67;100637.03;5049661;28;70044;-35
2021/07/28 02:30:54;;;;;;;;;;;;;;;;;;;;;
2021/07/28 02:33:35;;;;;;;4.60;2.83;;;;;;;30.90;65.33;100642.03;5047218;28;70253;-35
2021/07/28 02:36:11;;;;;;;4.75;3.00;;;;;;;30.85;65.24;100628.34;5050249;28;65376;-36
2021/07/28 02:38:45;;;;;;;5.20;3.15;;;;;;;30.93;65.34;100639.69;5048766;28;71115;-36
2021/07/28 02:41:21;;;;;;;10.23;3.38;;;;;;;30.92;65.52;100634.47;5050296;28;65620;-35
2021/07/28 02:44:02;;;;;;;4.47;3.08;;;;;;;30.95;65.41;100639.44;5051489;28;70241;-34
2021/07/28 02:46:38;;;;;;;6.78;2.90;;;;;;;30.96;65.66;100640.28;5041995;28;66609;-35
2021/07/28 02:49:10;;;;;;;4.80;3.05;;;;;;;30.92;65.22;100635.34;5050877;28;69848;-37
2021/07/28 02:51:44;;;;;;;4.47;2.97;;;;;;;30.84;65.61;100611.25;5048653;28;66050;-36
2021/07/28 02:54:22;;;;;;;3.85;3.00;;;;;;;31.01;65.47;100632.28;5051342;28;69983;-36
2021/07/28 02:56:57;;;;;;;4.78;2.90;;;;;;;30.99;64.99;100619.00;5050310;28;65519;-35
2021/07/28 02:59:30;;;;;;;7.25;3.13;;;;;;;31.00;65.35;100620.63;5050210;28;70192;-38
2021/07/28 03:02:02;;;;;;;5.22;3.28;;;;;;;31.04;65.35;100612.91;5053655;28;65345;-34
2021/07/28 03:04:35;;;;;;;10.32;3.45;;;;;;;31.05;65.81;100612.66;5049206;28;70196;-33
2021/07/28 03:07:08;;;;;;;9.93;3.25;;;;;;;31.06;65.60;100608.88;5055068;28;66598;-34
2021/07/28 03:09:42;;;;;;;6.53;3.10;;;;;;;31.04;65.54;100600.19;5050994;28;69474;-37
2021/07/28 03:12:32;;;;;;;15.77;3.40;;;;;;;31.11;65.07;100603.59;5051222;28;65476;-35
2021/07/28 03:15:16;;;;;;;6.40;3.15;;;;;;;31.14;65.59;100595.03;5052874;28;70112;-34
2021/07/28 03:17:50;;;;;;;8.23;3.28;;;;;;;31.15;65.82;100596.69;5049878;28;66316;-34
2021/07/28 03:20:51;;;;;;;11.23;3.05;;;;;;;31.19;66.19;100593.53;5051154;28;70404;-34
2021/07/28 03:23:27;;;;;;;9.15;3.30;;;;;;;31.25;65.51;100606.16;5049129;28;66441;-34
2021/07/28 03:25:59;;;;;;;7.68;3.58;;;;;;;31.30;65.22;100598.16;5049317;28;70553;-36
2021/07/28 03:28:30;;;;;;;;;;;;;;;31.10;65.39;100593.03;5051299;28;66223;-35
2021/07/28 03:31:02;;;;;;;5.65;3.75;;;;;;;31.33;64.90;100592.28;5050437;28;70084;-34
2021/07/28 03:33:35;;;;;;;7.53;3.40;;;;;;;31.40;64.79;100587.63;5049007;28;64669;-35
2021/07/28 03:36:10;;;;;;;4.32;2.90;;;;;;;31.45;64.39;100584.22;5051368;28;70419;-34
2021/07/28 03:38:44;;;;;;;4.43;3.08;;;;;;;31.47;64.55;100577.50;5054294;28;66501;-34
2021/07/28 03:41:22;;;;;;;7.28;3.20;;;;;;;31.53;63.68;100565.72;5047533;28;70397;-36
2021/07/28 03:44:00;;;;;;;7.53;3.38;;;;;;;31.57;64.36;100576.94;5052246;28;65494;-36
2021/07/28 03:46:33;;;;;;;6.72;3.25;;;;;;;31.59;63.99;100569.38;5048755;28;70613;-38
2021/07/28 03:49:06;;;;;;;6.28;3.28;;;;;;;31.59;64.09;100553.97;5028493;28;65205;-35
2021/07/28 03:51:40;;;;;;;6.70;3.05;;;;;;;31.60;64.39;100563.75;5049624;28;70266;-34
2021/07/28 03:54:25;;;;;;;5.85;2.72;;;;;;;31.56;63.57;100559.84;5050337;28;66363;-33
2021/07/28 03:56:56;;;;;;;3.15;2.10;;;;;;;31.64;63.45;100571.41;5053006;28;69826;-38
2021/07/28 03:59:42;;;;;;;7.45;3.08;;;;;;;31.63;63.70;100558.94;5047855;28;66964;-34
2021/07/28 04:02:14;;;;;;;7.78;2.90;;;;;;;31.66;63.48;100558.47;5053511;28;70063;-34
2021/07/28 04:04:47;;;;;;;8.77;2.70;;;;;;;31.68;63.08;100545.47;5047524;28;65661;-34
2021/07/28 04:07:29;;;;;;;5.50;2.80;;;;;;;31.72;63.31;100549.38;5048535;28;70328;-34
2021/07/28 04:10:05;;;;;;;9.07;3.00;;;;;;;31.75;63.21;100538.06;5047255;28;66484;-34
2021/07/28 04:12:43;;;;;;;4.28;2.85;;;;;;;31.77;63.48;100533.25;5051559;28;69947;-36
2021/07/28 04:15:18;;;;;;;4.43;2.35;;;;;;;31.62;63.20;100498.44;5048375;28;65205;-34
2021/07/28 04:17:57;;;;;;;;;;;;;;;31.55;64.12;100536.50;5050805;28;70042;-34
2021/07/28 04:20:32;;;;;;;9.20;2.30;;;;;;;31.86;63.11;100526.41;5051519;28;65521;-33
2021/07/28 04:23:07;;;;;;;5.05;2.42;;;;;;;31.91;63.69;100526.56;5050138;28;69925;-34
2021/07/28 04:25:42;;;;;;;5.72;2.60;;;;;;;31.95;63.36;100524.19;5051641;28;65309;-35
2021/07/28 04:28:14;;;;;;;5.55;2.75;;;;;;;31.98;63.28;100519.13;5048925;28;70017;-34
2021/07/28 04:30:52;;;;;;;5.40;2.65;;;;;;;32.02;62.90;100506.72;5045311;28;66581;-33
2021/07/28 04:33:29;;;;;;;3.22;2.10;;;;;;;32.07;62.57;100510.59;5050821;28;69926;-33
2021/07/28 04:36:01;;;;;;;4.13;2.15;;;;;;;32.01;62.85;100496.94;5052731;28;64991;-33
2021/07/28 04:38:37;;;;;;;5.25;2.63;;;;;;;32.10;62.63;100499.31;5047811;28;69897;-34
2021/07/28 04:41:19;;;;;;;8.20;2.70;;;;;;;32.11;62.24;100495.50;5046140;28;65566;-34
2021/07/28 04:43:56;;;;;;;6.75;2.53;;;;;;;32.11;62.37;100484.66;5045625;28;69727;-34
2021/07/28 04:46:29;;;;;;;4.03;2.63;;;;;;;32.12;62.71;100502.59;5047129;28;64938;-34
2021/07/28 04:49:15;;;;;;;12.77;2.63;;;;;;;32.12;63.38;100508.00;5047836;28;70150;-34
2021/07/28 04:51:53;;;;;;;4.47;2.40;;;;;;;32.13;62.64;100498.81;5049799;28;65539;-34
2021/07/28 04:54:31;;;;;;;5.57;2.80;;;;;;;32.16;63.00;100498.34;5047186;28;69859;-36
2021/07/28 04:57:03;;;;;;;8.02;2.55;;;;;;;32.13;62.84;100487.97;5046858;28;65816;-36
2021/07/28 04:59:52;;;;;;;7.75;2.35;;;;;;;32.09;63.29;100489.50;5048969;28;70190;-35
2021/07/28 05:02:26;;;;;;;17.50;2.70;;;;;;;31.99;62.18;100493.63;5043122;28;66377;-35
2021/07/28 05:04:59;;;;;;;8.65;2.40;;;;;;;31.86;61.35;100482.19;5044632;28;68625;-34
2021/07/28 05:07:32;;;;;;;14.85;2.60;;;;;;;31.54;60.89;100453.53;5048595;28;66138;-33
2021/07/28 05:10:07;;;;;;;10.35;2.75;;;;;;;31.56;60.21;100483.09;5040355;28;69701;-35
2021/07/28 05:12:46;;;;;;;7.20;2.60;;;;;;;31.43;58.72;100484.16;5045759;28;66136;-37
2021/07/28 05:15:18;;;;;;;;;;;;;;;30.93;58.66;100479.88;5046770;28;70313;-37
2021/07/28 05:17:50;;;;;;;14.50;2.50;;;;;;;31.09;57.58;100482.97;5046206;28;66108;-33
2021/07/28 05:20:37;;;;;;;6.90;2.30;;;;;;;30.99;56.45;100497.09;5050628;28;69433;-35
2021/07/28 05:23:16;;;;;;;7.13;2.08;;;;;;;30.89;56.31;100516.59;5047852;28;66045;-36
2021/07/28 05:25:55;;;;;;;7.75;2.10;;;;;;;30.78;57.53;100547.13;5012358;28;69950;-39
2021/07/28 05:28:48;;;;;;;4.00;2.28;;;;;;;30.69;58.30;100554.72;5047578;28;66034;-36
2021/07/28 05:31:22;;;;;;;5.30;2.20;;;;;;;30.59;57.25;100542.78;5041835;28;69445;-36
2021/07/28 05:33:54;;;;;;;6.38;2.40;;;;;;;30.45;57.20;100558.34;5029177;28;66349;-35
2021/07/28 05:36:42;;;;;;;8.32;2.47;;;;;;;30.31;57.41;100563.06;5048976;28;70094;-37
2021/07/28 05:39:15;;;;;;;3.20;1.80;;;;;;;30.24;56.86;100541.50;5026865;28;65491;-33
2021/07/28 05:41:57;;;;;;;8.00;1.85;;;;;;;30.10;56.21;100522.91;5051572;28;68961;-35
2021/07/28 05:44:34;;;;;;;2.58;1.48;;;;;;;30.05;56.01;100520.88;5032183;28;66604;-35
2021/07/28 05:47:08;;;;;;;3.80;1.63;;;;;;;29.92;56.25;100504.75;5042929;28;69432;-34
2021/07/28 05:49:48;;;;;;;2.90;1.75;;;;;;;29.91;55.85;100497.72;5035600;28;66215;-35
2021/07/28 05:52:22;;;;;;;2.30;1.30;;;;;;;29.81;55.79;100472.00;5052679;28;69795;-34
2021/07/28 05:54:56;;;;;;;2.17;1.67;;;;;;;29.71;55.00;100455.47;5049999;28;66466;-40
2021/07/28 05:57:32;;;;;;;1.77;1.38;;;;;;;29.67;54.53;100446.16;5057052;27;69284;-34
2021/07/28 06:00:10;;;;;;;2.40;1.58;;;;;;;29.61;54.58;100438.88;5051447;28;66049;-35
2021/07/28 06:02:46;;;;;;;2.30;1.42;;;;;;;29.52;54.39;100429.41;5031377;28;70165;-37
2021/07/28 06:05:20;;;;;;;1.35;1.00;;;;;;;29.48;53.80;100437.16;5054955;28;65671;-39
2021/07/28 06:07:55;;;;;;;7.53;1.65;;;;;;;29.43;53.60;100439.69;5037985;28;69266;-35
2021/07/28 06:10:36;;;;;;;4.40;1.63;;;;;;;29.41;52.66;100428.25;5048906;28;65821;-39
2021/07/28 06:13:15;;;;;;;7.65;1.38;;;;;;;29.34;51.61;100414.00;5051100;28;70117;-37
2021/07/28 06:15:54;;;;;;;2.67;1.30;;;;;;;29.31;51.27;100400.91;5047882;28;66049;-36
2021/07/28 06:18:26;;;;;;;6.13;1.40;;;;;;;29.31;50.66;100396.34;5051567;28;69889;-34
2021/07/28 06:21:02;;;;;;;2.05;1.20;;;;;;;29.32;50.29;100397.19;5037767;28;66092;-34
2021/07/28 06:23:35;;;;;;;2.65;1.20;;;;;;;29.29;50.40;100387.63;5048198;28;70214;-35
2021/07/28 06:26:12;;;;;;;4.65;1.55;;;;;;;29.25;50.14;100381.00;5051253;28;66117;-34
2021/07/28 06:28:58;;;;;;;4.22;1.20;;;;;;;29.24;49.65;100389.34;5050139;28;70052;-33
2021/07/28 06:31:36;;;;;;;2.92;1.27;;;;;;;29.17;49.09;100384.00;5050445;28;65049;-34
2021/07/28 06:34:13;;;;;;;7.80;1.55;;;;;;;29.16;49.12;100387.75;5053488;28;69365;-32
2021/07/28 06:36:46;;;;;;;1.90;1.70;;;;;;;29.09;48.70;100376.19;5052601;28;65551;-32
2021/07/28 06:39:21;;;;;;;2.38;1.63;;;;;;;29.10;48.98;100383.22;5054551;28;69326;-32
2021/07/28 06:41:53;;;;;;;2.15;1.48;;;;;;;28.85;48.97;100348.09;5050124;28;66221;-33
2021/07/28 06:44:26;;;;;;;4.70;1.48;;;;;;;29.05;48.37;100399.25;5054902;28;70207;-33
2021/07/28 06:46:59;;;;;;;1.77;1.67;;;;;;;29.02;48.16;100396.97;5053359;28;66564;-33
2021/07/28 06:49:31;;;;;;;1.60;1.47;;;;;;;28.98;48.07;100399.28;5049716;28;70563;-32
2021/07/28 06:52:05;;;;;;;1.70;1.30;;;;;;;28.95;47.97;100397.84;5052882;28;63601;-35
2021/07/28 06:54:37;;;;;;;1.70;1.42;;;;;;;28.90;47.35;100384.19;5052112;28;69699;-35
2021/07/28 06:57:09;;;;;;;1.55;1.35;;;;;;;28.91;47.02;100369.63;5051046;28;66359;-33
2021/07/28 06:59:48;;;;;;;1.60;1.42;;;;;;;28.89;46.67;100355.53;5051111;28;70401;-34
2021/07/28 07:02:37;;;;;;;1.58;1.40;;;;;;;28.86;47.15;100355.97;5047041;28;64960;-35
2021/07/28 07:05:11;;;;;;;4.20;1.38;;;;;;;28.86;46.73;100352.44;5033608;28;69197;-38
2021/07/28 07:07:50;;;;;;;1.65;1.38;;;;;;;28.83;46.40;100356.38;5051380;28;66408;-34
2021/07/28 07:10:24;;;;;;;1.83;1.42;;;;;;;28.82;46.95;100354.75;5062432;27;70415;-33
2021/07/28 07:12:56;;;;;;;;;;;;;;;28.52;47.20;100339.16;5047420;28;65328;-36
2021/07/28 07:15:28;;;;;;;11.10;1.63;;;;;;;28.79;47.33;100335.47;5049299;28;70035;-37
2021/07/28 07:18:02;;;;;;;5.15;1.70;;;;;;;28.81;47.89;100326.13;5048606;28;65266;-37
2021/07/28 07:20:33;;;;;;;5.43;2.10;;;;;;;28.81;48.01;100331.50;5048824;28;69846;-39
2021/07/28 07:23:08;;;;;;;5.93;2.05;;;;;;;28.85;48.58;100332.72;5049516;28;65608;-34
2021/07/28 07:25:41;;;;;;;3.17;2.72;;;;;;;28.81;48.12;100326.13;5035917;28;68666;-33
2021/07/28 07:28:22;;;;;;;4.03;2.25;;;;;;;28.81;48.12;100336.91;5048763;28;66614;-33
2021/07/28 07:30:56;;;;;;;3.15;2.20;;;;;;;28.79;47.69;100333.59;5051499;28;70493;-34
2021/07/28 07:33:41;;;;;;;2.60;2.40;;;;;;;28.78;47.09;100337.34;5048479;28;66892;-35
2021/07/28 07:36:23;;;;;;;2.50;2.30;;;;;;;28.80;47.36;100342.50;5051318;28;69735;-39
2021/07/28 07:39:04;;;;;;;2.83;2.63;;;;;;;28.74;46.62;100338.81;5052519;28;66625;-35
2021/07/28 07:41:52;;;;;;;2.97;2.63;;;;;;;28.75;46.12;100351.25;5043286;28;69386;-33
2021/07/28 07:44:26;;;;;;;3.35;2.42;;;;;;;28.76;46.66;100349.41;5049151;28;65884;-33
2021/07/28 07:47:12;;;;;;;2.80;2.55;;;;;;;28.75;46.13;100351.25;5050292;28;70211;-35
2021/07/28 07:49:52;;;;;;;2.60;2.40;;;;;;;28.71;45.98;100342.78;5050928;28;66098;-33
2021/07/28 07:52:29;;;;;;;2.92;2.63;;;;;;;28.74;45.93;100352.31;5044852;28;69847;-35
2021/07/28 07:55:04;;;;;;;3.70;3.10;;;;;;;28.74;45.89;100357.72;5050256;28;66167;-35
2021/07/28 07:57:39;;;;;;;3.95;3.28;;;;;;;28.76;46.37;100347.53;5051972;28;70125;-37
2021/07/28 08:00:15;;;;;;;3.17;2.78;;;;;;;28.76;45.92;100344.00;5050944;28;66154;-35
2021/07/28 08:02:51;;;;;;;2.88;2.67;;;;;;;28.77;45.40;100340.25;5048291;28;70186;-37
2021/07/28 08:05:25;;;;;;;4.82;3.00;;;;;;;28.77;47.08;100330.28;5047877;28;66271;-34
2021/07/28 08:08:00;;;;;;;3.40;2.97;;;;;;;28.61;47.59;100301.13;5048442;28;69531;-33
2021/07/28 08:10:41;;;;;;;3.63;3.33;;;;;;;28.78;47.99;100331.09;5042756;28;66083;-33
2021/07/28 08:13:16;;;;;;;3.85;3.47;;;;;;;28.82;48.24;100326.94;5047837;28;71006;-35
2021/07/28 08:15:52;;;;;;;5.13;3.55;;;;;;;28.82;47.51;100327.75;5048049;28;65593;-34
2021/07/28 08:18:32;;;;;;;3.70;3.28;;;;;;;28.84;47.44;100324.84;5031241;28;70467;-38
2021/07/28 08:21:18;;;;;;;3.95;3.65;;;;;;;28.83;47.12;100332.09;5047734;27;65424;-34
2021/07/28 08:24:05;;;;;;;3.80;3.40;;;;;;;28.75;47.10;100313.47;5046930;28;69934;-36
2021/07/28 08:26:40;;;;;;;3.97;3.67;;;;;;;28.83;47.43;100332.09;5048724;28;66093;-39
2021/07/28 08:29:14;;;;;;;4.07;3.78;;;;;;;28.83;46.87;100348.28;5035720;28;70115;-34
2021/07/28 08:31:56;;;;;;;4.93;3.47;;;;;;;28.85;46.69;100342.69;5046159;28;66300;-35
2021/07/28 08:34:59;;;;;;;4.00;3.70;;;;;;;28.82;46.08;100338.53;5048045;28;69998;-35
2021/07/28 08:37:41;;;;;;;4.60;4.20;;;;;;;28.82;46.75;100333.16;5047794;28;66709;-36
2021/07/28 08:40:17;;;;;;;4.25;3.88;;;;;;;28.85;46.57;100338.09;5049401;28;70007;-39
2021/07/28 08:42:55;;;;;;;4.40;4.00;;;;;;;28.85;46.76;100351.59;5053070;28;66269;-34
2021/07/28 08:45:32;;;;;;;4.70;4.40;;;;;;;28.84;46.51;100336.47;5034275;28;69700;-34
2021/07/28 08:48:08;;;;;;;4.90;4.43;;;;;;;28.86;46.64;100355.97;5047233;28;66501;-36
2021/07/28 08:51:06;;;;;;;4.80;4.40;;;;;;;28.85;47.36;100337.28;5033378;28;69014;-34
2021/07/28 08:53:47;;;;;;;10.48;4.88;;;;;;;28.82;46.86;100349.34;5047051;28;65478;-33
2021/07/28 08:56:23;;;;;;;5.32;4.82;;;;;;;28.70;47.52;100318.72;5044683;28;69462;-37
2021/07/28 08:58:57;;;;;;;8.30;4.93;;;;;;;28.90;49.55;100357.19;5047529;28;65086;-41
2021/07/28 09:01:36;;;;;;;15.20;6.18;;;;;;;28.98;52.69;100347.16;5047135;28;69854;-36
2021/07/28 09:04:09;;;;;;;12.38;6.75;;;;;;;29.11;57.24;100347.91;5047258;28;65822;-36
2021/07/28 09:06:43;;;;;;;8.68;7.07;;;;;;;29.20;60.77;100326.84;5048576;28;69780;-39
2021/07/28 09:09:23;;;;;;;9.35;7.07;;;;;;;29.40;62.37;100324.78;5045016;28;66348;-37
2021/07/28 09:12:04;;;;;;;7.72;7.13;;;;;;;29.59;63.24;100313.97;5049364;28;70162;-37
2021/07/28 09:14:55;;;;;;;8.52;7.78;;;;;;;29.72;64.51;100305.72;5048188;28;65795;-38
2021/07/28 09:17:36;;;;;;;8.07;7.38;;;;;;;29.78;65.07;100288.63;5030604;28;70525;-35
2021/07/28 09:20:26;;;;;;;10.88;7.88;;;;;;;29.99;64.78;100305.41;5049096;28;66380;-34
2021/07/28 09:23:12;;;;;;;8.48;7.55;;;;;;;30.02;65.14;100304.94;5052826;28;69814;-38
2021/07/28 09:25:55;;;;;;;8.35;7.60;;;;;;;30.12;65.97;100289.00;5053609;28;65571;-35
2021/07/28 09:28:28;;;;;;;12.20;8.15;;;;;;;30.28;65.41;100304.63;5052119;28;70063;-35
2021/07/28 09:31:01;;;;;;;8.35;7.65;;;;;;;30.26;65.19;100284.28;5050971;28;65476;-39
2021/07/28 09:34:07;;;;;;;13.80;8.43;;;;;;;30.40;66.50;100290.31;5051606;28;69450;-36
2021/07/28 09:36:40;;;;;;;10.65;8.23;;;;;;;30.51;65.70;100286.81;5033102;28;66298;-35
2021/07/28 09:39:34;;;;;;;;;;;;;;;30.35;67.11;100290.19;5050928;28;69430;-34
2021/07/28 09:42:15;;;;;;;9.75;8.55;;;;;;;30.42;66.85;100261.13;5052599;28;67259;-39
2021/07/28 09:44:57;;;;;;;10.00;9.00;;;;;;;30.68;66.35;100306.72;5051350;28;69939;-34
2021/07/28 09:47:41;;;;;;;10.77;9.10;;;;;;;30.74;66.94;100296.84;5053734;28;66095;-37
2021/07/28 09:50:22;;;;;;;11.35;8.73;;;;;;;30.83;66.10;100305.47;5035641;28;69379;-39
2021/07/28 09:53:08;;;;;;;9.15;8.15;;;;;;;30.78;66.79;100291.78;5048472;28;66336;-35
2021/07/28 09:56:06;;;;;;;9.43;8.63;;;;;;;30.89;66.57;100304.53;5036471;28;69164;-39
2021/07/28 09:58:41;;;;;;;10.68;9.30;;;;;;;30.88;67.03;100306.44;5062007;27;66439;-37
2021/07/28 10:01:19;;;;;;;11.38;9.73;;;;;;;30.92;66.63;100318.47;5048098;28;70053;-35
2021/07/28 10:04:22;;;;;;;13.35;9.82;;;;;;;30.96;66.55;100332.34;5044237;28;65569;-37
2021/07/28 10:07:02;;;;;;;14.30;9.93;;;;;;;30.98;67.18;100337.50;5045148;28;69248;-36
2021/07/28 10:09:49;;;;;;;11.00;9.98;;;;;;;31.01;67.16;100340.59;5048589;28;66375;-37
2021/07/28 10:12:27;;;;;;;12.27;9.93;;;;;;;30.98;66.87;100341.06;5050574;28;69853;-34
2021/07/28 10:15:10;;;;;;;14.90;11.85;;;;;;;31.03;66.61;100340.34;5050737;28;66345;-35
2021/07/28 10:17:51;;;;;;;13.93;10.82;;;;;;;31.06;67.48;100343.41;5047121;28;70417;-40
2021/07/28 10:20:52;;;;;;;11.57;10.43;;;;;;;31.09;67.16;100332.13;5039673;28;66193;-40
2021/07/28 10:23:24;;;;;;;14.80;11.60;;;;;;;31.19;67.29;100346.97;5049905;28;70547;-35
2021/07/28 10:25:56;;;;;;;17.80;11.23;;;;;;;31.22;67.49;100339.19;5052150;28;66088;-39
2021/07/28 10:28:35;;;;;;;14.63;10.68;;;;;;;31.26;67.28;100336.81;5050502;28;69988;-37
2021/07/28 10:31:28;;;;;;;17.47;11.67;;;;;;;31.05;66.84;100303.84;5047728;28;66489;-38
2021/07/28 10:34:22;;;;;;;14.65;12.27;;;;;;;31.13;67.22;100327.88;5049214;28;69939;-36
2021/07/28 10:37:04;;;;;;;15.82;10.98;;;;;;;31.18;66.37;100324.47;5052051;28;66210;-36
2021/07/28 10:39:50;;;;;;;23.05;11.85;;;;;;;31.39;66.95;100352.88;5049731;28;70600;-35
2021/07/28 10:42:29;;;;;;;13.93;11.93;;;;;;;31.43;66.91;100361.38;5027672;28;65710;-35
2021/07/28 10:45:12;;;;;;;15.98;11.00;;;;;;;31.26;66.01;100328.69;5050240;28;70334;-36
2021/07/28 10:47:52;;;;;;;18.88;12.43;;;;;;;31.44;65.80;100366.53;5054336;28;66295;-35
2021/07/28 10:50:28;;;;;;;15.38;11.70;;;;;;;31.49;65.82;100380.22;5050486;28;69181;-35
2021/07/28 10:53:12;;;;;;;24.45;13.57;;;;;;;31.51;65.74;100380.81;5048423;28;64790;-36
2021/07/28 10:56:10;;;;;;;17.98;13.45;;;;;;;31.22;66.25;100354.63;5052819;27;69129;-35
2021/07/28 10:58:43;;;;;;;17.48;12.45;;;;;;;31.48;65.33;100389.41;5050772;28;66882;-35
2021/07/28 11:01:15;;;;;;;14.50;12.23;;;;;;;31.47;64.43;100393.19;5043379;28;69921;-34
2021/07/28 11:03:49;;;;;;;13.45;9.77;;;;;;;31.49;63.94;100410.03;5046750;28;66765;-39
2021/07/28 11:06:22;;;;;;;10.57;9.40;;;;;;;31.48;63.77;100412.97;5048060;28;70859;-35
2021/07/28 11:09:15;;;;;;;11.13;8.48;;;;;;;31.38;64.25;100427.94;5057868;28;66290;-35
2021/07/28 11:11:51;;;;;;;11.57;7.45;;;;;;;31.42;63.86;100431.00;5054351;28;70020;-34
2021/07/28 11:14:27;;;;;;;6.45;5.72;;;;;;;31.19;61.22;100396.56;5055388;28;66222;-34
2021/07/28 11:17:02;;;;;;;5.90;5.40;;;;;;;31.35;62.17;100433.81;5048836;28;70475;-35
2021/07/28 11:19:46;;;;;;;5.63;3.92;;;;;;;31.24;60.63;100421.06;5049455;28;66332;-35
2021/07/28 11:22:26;;;;;;;4.00;3.60;;;;;;;31.27;61.20;100427.91;5056237;28;69051;-35
2021/07/28 11:25:00;;;;;;;3.67;3.20;;;;;;;31.27;61.72;100430.63;5053545;28;65348;-35
2021/07/28 11:27:35;;;;;;;3.70;3.40;;;;;;;31.23;62.00;100432.13;5051901;28;69314;-36
2021/07/28 11:30:13;;;;;;;5.15;3.88;;;;;;;31.06;62.31;100408.41;5050393;28;66176;-34
2021/07/28 11:32:50;;;;;;;4.25;3.83;;;;;;;31.25;61.79;100443.56;5050750;28;70106;-34
2021/07/28 11:35:24;;;;;;;7.35;3.83;;;;;;;31.14;59.40;100443.31;5062382;28;66076;-35
2021/07/28 11:38:13;;;;;;;4.03;3.47;;;;;;;30.78;57.12;100413.63;5053175;28;69116;-34
2021/07/28 11:41:00;;;;;;;3.73;2.97;;;;;;;30.90;56.64;100441.63;5048663;28;66443;-36
2021/07/28 11:43:42;;;;;;;3.63;3.30;;;;;;;30.79;55.09;100439.66;5050717;28;69984;-37
2021/07/28 11:46:21;;;;;;;3.78;2.97;;;;;;;30.66;53.80;100436.06;5051651;28;65631;-35
2021/07/28 11:48:57;;;;;;;13.63;2.92;;;;;;;30.46;53.47;100424.69;5048383;28;70317;-36
2021/07/28 11:51:35;;;;;;;10.77;3.05;;;;;;;30.26;53.57;100420.38;5047380;28;66545;-35
2021/07/28 11:54:16;;;;;;;8.15;3.30;;;;;;;30.28;54.36;100429.09;5048538;28;71204;-36
2021/07/28 11:56:54;;;;;;;14.48;3.25;;;;;;;29.99;54.26;100397.34;5049633;28;65879;-36
2021/07/28 11:59:32;;;;;;;10.88;3.50;;;;;;;30.13;53.28;100430.50;5051101;28;70467;-34
2021/07/28 12:02:26;;;;;;;13.35;3.10;;;;;;;29.99;53.71;100425.22;5048988;28;66364;-35
2021/07/28 12:05:04;;;;;;;10.68;3.03;;;;;;;29.97;52.58;100426.50;5043035;28;69111;-34
2021/07/28 12:07:54;;;;;;;11.50;3.42;;;;;;;29.89;52.25;100424.09;5044094;28;65242;-33
2021/07/28 12:11:01;;;;;;;9.80;3.33;;;;;;;29.79;52.05;100414.63;5047962;28;69307;-37
2021/07/28 12:13:47;;;;;;;12.52;3.33;;;;;;;29.59;52.42;100392.34;5045927;28;66670;-36
2021/07/28 12:16:40;;;;;;;8.13;2.97;;;;;;;29.43;52.17;100382.13;5051577;28;43841;-35
2021/07/28 12:19:35;;;;;;;19.70;3.22;;;;;;;29.57;52.03;100410.66;5051629;28;66463;-35